Time;durP1;ratioP1;P1;durP2;ratioP2;P2;SDS_P1;SDS_P2;PMS_P1;PMS_P2;Temp;Humidity;BMP_temperature;BMP_pressure;BME280_temperature;BME280_humidity;BME280_pressure;Samples;Min_cycle;Max_cycle;Signal;HPM_P1;HPM_P2
2022/01/06 00:01:29;;;;;;;0.00;0.00;;;4.30;70.50;;;;;;4192446;28;20053;-58
2022/01/06 00:04:04;;;;;;;0.00;0.00;;;4.50;70.20;;;;;;4192850;28;20049;-58
2022/01/06 00:06:47;;;;;;;0.00;0.00;;;4.50;69.70;;;;;;4179021;28;20079;-59
2022/01/06 00:09:23;;;;;;;0.00;0.00;;;4.60;69.30;;;;;;4192724;28;20097;-58
2022/01/06 00:12:06;;;;;;;0.00;0.00;;;4.60;69.20;;;;;;4192556;28;20044;-58
2022/01/06 00:14:58;;;;;;;0.00;0.00;;;4.60;69.20;;;;;;4178765;28;20056;-59
2022/01/06 00:17:58;;;;;;;0.00;0.00;;;4.70;69.00;;;;;;4192694;28;20075;-59
2022/01/06 00:23:42;;;;;;;0.00;0.00;;;4.80;68.20;;;;;;4178862;28;20237;-59
2022/01/06 00:26:17;;;;;;;0.00;0.00;;;4.80;68.90;;;;;;4178646;28;20069;-59
2022/01/06 00:28:58;;;;;;;0.00;0.00;;;4.80;68.70;;;;;;4177138;28;20049;-58
2022/01/06 00:31:41;;;;;;;0.00;0.00;;;4.70;68.40;;;;;;4191523;28;20074;-59
2022/01/06 00:34:23;;;;;;;0.00;0.00;;;4.80;68.30;;;;;;4178924;28;20064;-59
2022/01/06 00:37:07;;;;;;;0.00;0.00;;;4.90;67.70;;;;;;4178695;28;20107;-60
2022/01/06 00:39:48;;;;;;;0.00;0.00;;;4.90;67.60;;;;;;4178661;28;20099;-60
2022/01/06 00:42:24;;;;;;;0.00;0.00;;;4.50;68.80;;;;;;4178527;28;20098;-59
2022/01/06 00:45:05;;;;;;;0.00;0.00;;;4.40;69.90;;;;;;4192813;28;20044;-58
2022/01/06 00:47:48;;;;;;;0.00;0.00;;;4.20;70.20;;;;;;4192728;28;20053;-56
2022/01/06 00:50:30;;;;;;;0.00;0.00;;;4.00;71.00;;;;;;4178447;28;20087;-58
2022/01/06 00:53:07;;;;;;;0.00;0.00;;;4.00;71.30;;;;;;4178684;28;20049;-58
2022/01/06 00:55:48;;;;;;;0.00;0.00;;;4.10;71.50;;;;;;4195564;28;20060;-59
2022/01/06 00:58:31;;;;;;;0.00;0.00;;;4.30;71.10;;;;;;4195526;28;20460;-59
2022/01/06 01:01:12;;;;;;;0.00;0.00;;;4.20;71.10;;;;;;4181615;28;20057;-59
2022/01/06 01:03:48;;;;;;;0.00;0.00;;;4.10;71.40;;;;;;4181582;28;20083;-58
2022/01/06 01:06:30;;;;;;;0.00;0.00;;;4.00;71.50;;;;;;4181453;28;20041;-57
2022/01/06 01:09:07;;;;;;;0.00;0.00;;;4.00;71.70;;;;;;4181501;28;20061;-58
2022/01/06 01:11:48;;;;;;;0.00;0.00;;;4.00;71.90;;;;;;4182301;28;20442;-59
2022/01/06 01:14:29;;;;;;;0.00;0.00;;;4.10;71.70;;;;;;4181367;28;20083;-58
2022/01/06 01:17:24;;;;;;;0.00;0.00;;;4.20;71.50;;;;;;4182397;28;20096;-58
2022/01/06 01:20:03;;;;;;;0.00;0.00;;;4.30;71.20;;;;;;4181201;28;20056;-59
2022/01/06 01:22:47;;;;;;;0.00;0.00;;;4.40;71.00;;;;;;4182203;28;20064;-58
2022/01/06 01:25:30;;;;;;;0.00;0.00;;;4.40;70.80;;;;;;4182224;28;20055;-58
2022/01/06 01:28:20;;;;;;;0.00;0.00;;;4.40;70.70;;;;;;4182203;28;20088;-59
2022/01/06 01:34:02;;;;;;;0.00;0.00;;;4.50;70.70;;;;;;4182102;28;20064;-59
2022/01/06 01:36:58;;;;;;;0.00;0.00;;;4.40;70.50;;;;;;4181983;28;20055;-59
2022/01/06 01:39:34;;;;;;;0.00;0.00;;;4.20;70.70;;;;;;4182033;28;20053;-59
2022/01/06 01:42:23;;;;;;;;;;;4.20;70.80;;;;;;4182082;28;20060;-59
2022/01/06 01:45:11;;;;;;;0.00;0.00;;;4.10;70.80;;;;;;4182015;28;20345;-59
2022/01/06 01:47:57;;;;;;;0.00;0.00;;;4.00;71.20;;;;;;4181817;28;20122;-60
2022/01/06 01:50:39;;;;;;;0.00;0.00;;;3.80;71.70;;;;;;4181756;28;20056;-59
2022/01/06 01:53:17;;;;;;;0.00;0.00;;;3.70;72.30;;;;;;4181786;28;20447;-59
2022/01/06 01:55:59;;;;;;;0.00;0.00;;;3.70;72.90;;;;;;4168991;28;20055;-60
2022/01/06 01:58:42;;;;;;;0.00;0.00;;;3.80;73.00;;;;;;4180767;28;20128;-60
2022/01/06 02:01:24;;;;;;;0.00;0.00;;;4.00;72.90;;;;;;4180499;28;20053;-59
2022/01/06 02:04:00;;;;;;;0.00;0.00;;;4.00;73.10;;;;;;4181623;28;20478;-59
2022/01/06 02:06:43;;;;;;;0.00;0.00;;;4.00;73.40;;;;;;4181470;28;20558;-60
2022/01/06 02:09:26;;;;;;;0.00;0.00;;;3.90;73.70;;;;;;4181618;28;20059;-59
2022/01/06 02:12:01;;;;;;;0.00;0.00;;;3.90;74.00;;;;;;4180470;28;20045;-59
2022/01/06 02:14:44;;;;;;;0.00;0.00;;;4.10;74.00;;;;;;4194622;28;20086;-57
2022/01/06 02:17:19;;;;;;;0.00;0.00;;;4.10;73.90;;;;;;4180680;28;20529;-61
2022/01/06 02:20:09;;;;;;;0.00;0.00;;;4.20;73.90;;;;;;4194486;28;20480;-59
2022/01/06 02:22:45;;;;;;;0.00;0.00;;;4.10;74.10;;;;;;4180382;28;20049;-60
2022/01/06 02:25:30;;;;;;;0.00;0.00;;;4.20;74.20;;;;;;4180492;28;20048;-59
2022/01/06 02:28:12;;;;;;;0.00;0.00;;;4.20;74.30;;;;;;4193949;28;20117;-61
2022/01/06 02:30:51;;;;;;;0.00;0.00;;;4.40;74.00;;;;;;4177546;28;20095;-59
2022/01/06 02:33:41;;;;;;;0.00;0.00;;;4.50;73.90;;;;;;4194247;28;20456;-59
2022/01/06 02:36:16;;;;;;;0.00;0.00;;;4.40;74.00;;;;;;4194259;28;20052;-59
2022/01/06 02:38:58;;;;;;;0.00;0.00;;;4.40;74.00;;;;;;4179974;28;20081;-60
2022/01/06 02:41:33;;;;;;;0.00;0.00;;;4.50;73.90;;;;;;4179854;28;20053;-60
2022/01/06 02:44:14;;;;;;;0.00;0.00;;;4.60;73.80;;;;;;4179821;28;20111;-59
2022/01/06 02:46:57;;;;;;;0.00;0.00;;;4.50;73.90;;;;;;4180027;28;20049;-60
2022/01/06 02:49:39;;;;;;;0.00;0.00;;;4.50;74.10;;;;;;4179788;28;20049;-61
2022/01/06 02:52:15;;;;;;;0.00;0.00;;;4.40;74.40;;;;;;4179741;28;20049;-60
2022/01/06 02:54:56;;;;;;;0.00;0.00;;;4.50;74.60;;;;;;4179865;28;20057;-60
2022/01/06 02:57:25;;;;;;;0.00;0.00;;;4.50;74.10;;;;;;4179882;28;20140;-60
2022/01/06 03:00:07;;;;;;;0.00;0.00;;;4.50;73.90;;;;;;4193610;28;20044;-60
2022/01/06 03:02:50;;;;;;;0.00;0.00;;;4.40;73.70;;;;;;4179631;28;20175;-60
2022/01/06 03:05:31;;;;;;;0.00;0.00;;;4.50;73.70;;;;;;4178844;28;20041;-60
2022/01/06 03:08:07;;;;;;;0.00;0.00;;;4.50;73.20;;;;;;4179522;28;20049;-59
2022/01/06 03:10:44;;;;;;;0.00;0.00;;;4.60;73.10;;;;;;4192193;28;20079;-61
2022/01/06 03:13:34;;;;;;;0.00;0.00;;;4.60;72.90;;;;;;4163025;28;20159;-60
2022/01/06 03:16:10;;;;;;;0.00;0.00;;;4.70;72.60;;;;;;4162874;28;20115;-59
2022/01/06 03:18:52;;;;;;;0.00;0.00;;;4.70;72.70;;;;;;4176673;28;20045;-60
2022/01/06 03:21:27;;;;;;;0.00;0.00;;;4.60;72.70;;;;;;4162906;28;20053;-61
2022/01/06 03:24:10;;;;;;;0.00;0.00;;;4.70;72.90;;;;;;4152315;28;20171;-60
2022/01/06 03:26:45;;;;;;;0.00;0.00;;;4.50;73.50;;;;;;4162722;28;20053;-59
2022/01/06 03:29:34;;;;;;;0.00;0.00;;;4.50;74.00;;;;;;4175250;28;20446;-59
2022/01/06 03:32:19;;;;;;;0.00;0.00;;;4.40;74.40;;;;;;4162474;28;20060;-60
2022/01/06 03:35:00;;;;;;;0.00;0.00;;;4.60;74.50;;;;;;4162633;28;20041;-60
2022/01/06 03:37:36;;;;;;;0.00;0.00;;;4.50;74.30;;;;;;4176620;28;20072;-59
2022/01/06 03:40:12;;;;;;;0.00;0.00;;;4.60;74.20;;;;;;4162797;28;20620;-60
2022/01/06 03:42:54;;;;;;;0.00;0.00;;;4.60;73.80;;;;;;4162746;28;20115;-59
2022/01/06 03:45:31;;;;;;;0.00;0.00;;;4.40;73.90;;;;;;4176591;28;20549;-60
2022/01/06 03:48:13;;;;;;;0.00;0.00;;;4.20;74.40;;;;;;4162582;28;20085;-60
2022/01/06 03:50:48;;;;;;;0.00;0.00;;;3.90;74.70;;;;;;4162177;28;20064;-60
2022/01/06 03:53:31;;;;;;;0.00;0.00;;;3.90;75.10;;;;;;4176491;28;20445;-60
2022/01/06 03:56:06;;;;;;;0.00;0.00;;;3.80;75.10;;;;;;4176207;28;20079;-60
2022/01/06 03:58:50;;;;;;;0.00;0.00;;;3.90;74.90;;;;;;4162555;28;20087;-60
2022/01/06 04:01:32;;;;;;;0.00;0.00;;;4.20;74.60;;;;;;4176255;28;20056;-59
2022/01/06 04:04:08;;;;;;;0.00;0.00;;;4.30;74.30;;;;;;4162311;28;20069;-59
2022/01/06 04:06:51;;;;;;;0.00;0.00;;;4.40;74.40;;;;;;4162303;28;20054;-61
2022/01/06 04:09:26;;;;;;;0.00;0.00;;;4.50;74.40;;;;;;4162506;28;20434;-61
2022/01/06 04:12:01;;;;;;;0.00;0.00;;;4.60;74.30;;;;;;4162229;28;20080;-59
2022/01/06 04:14:44;;;;;;;0.00;0.00;;;4.60;74.10;;;;;;4162489;28;20574;-61
2022/01/06 04:17:20;;;;;;;0.00;0.00;;;4.70;74.20;;;;;;4176104;28;20110;-59
2022/01/06 04:20:04;;;;;;;0.00;0.00;;;4.70;74.10;;;;;;4162429;28;20072;-61
2022/01/06 04:22:40;;;;;;;0.00;0.00;;;4.70;74.30;;;;;;4176073;28;20053;-61
2022/01/06 04:25:22;;;;;;;0.00;0.00;;;4.70;74.30;;;;;;4176156;28;20080;-59
2022/01/06 04:27:58;;;;;;;0.00;0.00;;;4.70;74.40;;;;;;4148659;28;20054;-61
2022/01/06 04:30:41;;;;;;;0.00;0.00;;;4.70;74.40;;;;;;4164096;28;20134;-60
2022/01/06 04:33:24;;;;;;;0.00;0.00;;;4.80;74.60;;;;;;4165856;28;20067;-61
2022/01/06 04:36:08;;;;;;;0.00;0.00;;;4.80;74.80;;;;;;4179419;28;20048;-59
2022/01/06 04:38:43;;;;;;;0.00;0.00;;;4.80;74.60;;;;;;4165434;28;20079;-59
2022/01/06 04:41:25;;;;;;;0.00;0.00;;;4.70;74.60;;;;;;4179265;28;20434;-60
2022/01/06 04:44:01;;;;;;;0.00;0.00;;;4.60;74.90;;;;;;4165487;28;20046;-61
2022/01/06 04:46:44;;;;;;;0.00;0.00;;;4.60;75.00;;;;;;4179316;28;20045;-59
2022/01/06 04:49:19;;;;;;;0.00;0.00;;;4.60;75.20;;;;;;4179502;28;20067;-61
2022/01/06 04:52:01;;;;;;;0.00;0.00;;;4.50;75.30;;;;;;4164913;28;20112;-59
2022/01/06 04:54:37;;;;;;;0.00;0.00;;;4.40;75.60;;;;;;4165244;28;20075;-60
2022/01/06 04:57:21;;;;;;;0.00;0.00;;;4.30;76.00;;;;;;4179023;28;20045;-60
2022/01/06 04:59:56;;;;;;;0.00;0.00;;;4.10;76.40;;;;;;4165290;28;20061;-59
2022/01/06 05:02:38;;;;;;;0.00;0.00;;;3.70;77.50;;;;;;4164823;28;20049;-59
2022/01/06 05:05:21;;;;;;;0.00;0.00;;;3.50;78.30;;;;;;4165229;28;20461;-59
2022/01/06 05:07:56;;;;;;;0.00;0.00;;;3.50;79.00;;;;;;4166387;28;20102;-60
2022/01/06 05:10:39;;;;;;;0.00;0.00;;;3.30;79.50;;;;;;4178752;28;20140;-60
2022/01/06 05:13:20;;;;;;;0.00;0.00;;;3.10;80.10;;;;;;4164886;28;20107;-60
2022/01/06 05:15:49;;;;;;;0.00;0.00;;;3.00;80.70;;;;;;4164981;28;20448;-60
2022/01/06 05:18:30;;;;;;;;;;;3.00;81.10;;;;;;4179289;28;20538;-60
2022/01/06 05:21:19;;;;;;;;;;;3.20;80.90;;;;;;4178980;28;20378;-60
2022/01/06 05:23:49;;;;;;;0.00;0.00;;;3.30;80.50;;;;;;4165012;28;20279;-59
2022/01/06 05:26:38;;;;;;;0.00;0.00;;;3.40;80.30;;;;;;4151159;28;20046;-60
2022/01/06 05:29:09;;;;;;;0.00;0.00;;;3.50;80.30;;;;;;4178545;28;20135;-59
2022/01/06 05:31:57;;;;;;;0.00;0.00;;;3.60;80.10;;;;;;4164309;28;20057;-57
2022/01/06 05:34:40;;;;;;;0.00;0.00;;;3.70;80.00;;;;;;4164872;28;20064;-60
2022/01/06 05:37:21;;;;;;;0.00;0.00;;;3.80;80.00;;;;;;4164836;28;20163;-60
2022/01/06 05:39:57;;;;;;;0.00;0.00;;;3.90;79.90;;;;;;4164040;28;20087;-59
2022/01/06 05:42:38;;;;;;;0.00;0.00;;;4.00;80.20;;;;;;4164297;28;20103;-59
2022/01/06 05:45:22;;;;;;;0.00;0.00;;;3.90;80.80;;;;;;4178543;28;20049;-60
2022/01/06 05:48:03;;;;;;;0.00;0.00;;;3.90;81.20;;;;;;4164495;28;20164;-60
2022/01/06 05:50:52;;;;;;;0.00;0.00;;;3.70;81.40;;;;;;4178170;28;20623;-59
2022/01/06 05:53:35;;;;;;;0.00;0.00;;;3.80;82.00;;;;;;4178193;28;20063;-59
2022/01/06 05:56:12;;;;;;;0.00;0.00;;;3.90;81.50;;;;;;4178214;28;20187;-61
2022/01/06 05:58:54;;;;;;;0.00;0.00;;;4.00;81.30;;;;;;4178209;28;20139;-59
2022/01/06 06:01:30;;;;;;;0.00;0.00;;;4.10;81.20;;;;;;4150457;28;20147;-60
2022/01/06 06:04:13;;;;;;;0.00;0.00;;;4.10;81.00;;;;;;4152519;28;20042;-60
2022/01/06 06:06:48;;;;;;;0.00;0.00;;;4.30;80.80;;;;;;4178244;28;20509;-60
2022/01/06 06:09:30;;;;;;;0.00;0.00;;;4.20;80.40;;;;;;4177946;28;20057;-60
2022/01/06 06:12:07;;;;;;;0.00;0.00;;;4.20;80.50;;;;;;4177572;28;20060;-60
2022/01/06 06:14:49;;;;;;;0.00;0.00;;;4.30;80.50;;;;;;4164277;28;20046;-58
2022/01/06 06:17:24;;;;;;;0.00;0.00;;;4.30;80.50;;;;;;4164137;28;20107;-59
2022/01/06 06:20:05;;;;;;;0.00;0.00;;;4.30;80.50;;;;;;4177720;28;20053;-60
2022/01/06 06:22:42;;;;;;;0.00;0.00;;;4.30;80.50;;;;;;4152117;28;20058;-59
2022/01/06 06:25:25;;;;;;;0.00;0.00;;;4.30;80.10;;;;;;4178005;28;20110;-60
2022/01/06 06:28:01;;;;;;;0.00;0.00;;;4.20;79.50;;;;;;4164048;28;20046;-60
2022/01/06 06:30:43;;;;;;;0.00;0.00;;;3.90;79.80;;;;;;4176061;28;20461;-61
2022/01/06 06:33:26;;;;;;;0.00;0.00;;;3.70;80.30;;;;;;4163795;28;20462;-59
2022/01/06 06:36:09;;;;;;;0.00;0.00;;;3.40;81.00;;;;;;4177565;28;20052;-59
2022/01/06 06:38:54;;;;;;;0.00;0.00;;;3.20;81.60;;;;;;4163665;28;20064;-60
2022/01/06 06:41:35;;;;;;;0.00;0.00;;;3.30;81.80;;;;;;4177550;28;20469;-59
2022/01/06 06:44:12;;;;;;;0.00;0.00;;;3.30;81.60;;;;;;4163536;28;20135;-60
2022/01/06 06:46:53;;;;;;;0.00;0.00;;;3.40;81.80;;;;;;4163391;28;20058;-60
2022/01/06 06:49:29;;;;;;;0.00;0.00;;;3.50;81.40;;;;;;4163490;28;20041;-59
2022/01/06 06:52:11;;;;;;;0.00;0.00;;;3.40;81.60;;;;;;4162112;28;20068;-59
2022/01/06 06:54:48;;;;;;;0.00;0.00;;;3.10;82.10;;;;;;4177560;28;20067;-59
2022/01/06 06:57:29;;;;;;;0.00;0.00;;;3.00;82.90;;;;;;4177480;28;20154;-60
2022/01/06 07:00:08;;;;;;;0.00;0.00;;;3.20;82.80;;;;;;4163354;28;20592;-60
2022/01/06 07:02:49;;;;;;;0.00;0.00;;;3.30;82.70;;;;;;4163380;28;20499;-60
2022/01/06 07:05:26;;;;;;;0.00;0.00;;;3.30;82.50;;;;;;4163434;28;20469;-61
2022/01/06 07:08:08;;;;;;;0.00;0.00;;;3.20;82.60;;;;;;4177219;28;20049;-58
2022/01/06 07:10:44;;;;;;;0.00;0.00;;;3.10;82.80;;;;;;4176533;28;20434;-61
2022/01/06 07:13:25;;;;;;;0.00;0.00;;;3.10;83.20;;;;;;4176792;28;20052;-58
2022/01/06 07:16:08;;;;;;;0.00;0.00;;;2.90;83.40;;;;;;4177100;28;20414;-61
2022/01/06 07:18:43;;;;;;;0.00;0.00;;;3.10;83.60;;;;;;4179744;28;20053;-61
2022/01/06 07:21:26;;;;;;;0.00;0.00;;;3.30;83.10;;;;;;4179040;28;20103;-62
2022/01/06 07:24:05;;;;;;;0.00;0.00;;;3.20;83.00;;;;;;4179547;28;20132;-62
2022/01/06 07:26:53;;;;;;;0.00;0.00;;;3.20;83.20;;;;;;4176629;28;20048;-60
2022/01/06 07:29:27;;;;;;;0.00;0.00;;;3.20;83.20;;;;;;4163129;28;20045;-60
2022/01/06 07:32:10;;;;;;;0.00;0.00;;;3.30;83.00;;;;;;4186500;28;20044;-60
2022/01/06 07:34:52;;;;;;;0.00;0.00;;;3.40;82.70;;;;;;4192976;28;20040;-60
2022/01/06 07:37:28;;;;;;;0.00;0.00;;;3.50;82.50;;;;;;4179188;28;20094;-59
2022/01/06 07:40:12;;;;;;;0.00;0.00;;;3.60;82.00;;;;;;4179378;28;20049;-59
2022/01/06 07:42:55;;;;;;;0.00;0.00;;;3.60;82.00;;;;;;4187540;28;20045;-60
2022/01/06 07:45:32;;;;;;;0.00;0.00;;;3.70;81.90;;;;;;4162230;28;20045;-59
2022/01/06 07:48:18;;;;;;;0.00;0.00;;;3.70;81.70;;;;;;4162846;28;20159;-59
2022/01/06 07:50:54;;;;;;;0.00;0.00;;;3.70;81.50;;;;;;4162065;28;20458;-59
2022/01/06 07:53:30;;;;;;;0.00;0.00;;;3.60;81.80;;;;;;4162463;28;20056;-57
2022/01/06 07:56:11;;;;;;;0.00;0.00;;;3.60;82.00;;;;;;4150996;28;20053;-56
2022/01/06 07:58:48;;;;;;;0.00;0.00;;;3.50;81.90;;;;;;4151492;28;20041;-59
2022/01/06 08:01:30;;;;;;;0.00;0.00;;;3.40;82.30;;;;;;4165348;28;20041;-58
2022/01/06 08:04:11;;;;;;;0.00;0.00;;;3.40;82.70;;;;;;4162451;28;20561;-57
2022/01/06 08:06:47;;;;;;;0.00;0.00;;;3.40;82.70;;;;;;4162279;28;20057;-56
2022/01/06 08:09:28;;;;;;;0.00;0.00;;;3.30;82.70;;;;;;4176194;28;20095;-59
2022/01/06 08:12:04;;;;;;;0.00;0.00;;;3.30;82.90;;;;;;4174436;28;20535;-59
2022/01/06 08:14:46;;;;;;;0.00;0.00;;;3.40;82.90;;;;;;4185036;28;20048;-60
2022/01/06 08:17:22;;;;;;;0.00;0.00;;;3.50;82.60;;;;;;4169528;28;20379;-60
2022/01/06 08:20:03;;;;;;;;;;;3.60;82.30;;;;;;4192794;28;20048;-60
2022/01/06 08:22:40;;;;;;;0.00;0.00;;;3.60;82.10;;;;;;4190486;28;19967;-59
2022/01/06 08:25:21;;;;;;;0.00;0.00;;;3.50;82.10;;;;;;4176149;28;20057;-59
2022/01/06 08:27:57;;;;;;;0.00;0.00;;;3.60;82.20;;;;;;4175787;28;20083;-60
2022/01/06 08:30:40;;;;;;;0.00;0.00;;;3.80;82.10;;;;;;4185459;28;20056;-59
2022/01/06 08:33:23;;;;;;;0.00;0.00;;;3.70;82.00;;;;;;4166684;28;20037;-59
2022/01/06 08:35:58;;;;;;;0.00;0.00;;;3.70;82.10;;;;;;4178793;28;20123;-59
2022/01/06 08:38:42;;;;;;;0.00;0.00;;;3.70;82.20;;;;;;4163182;28;20143;-59
2022/01/06 08:41:23;;;;;;;0.00;0.00;;;3.80;82.30;;;;;;4188379;28;20045;-60
2022/01/06 08:43:52;;;;;;;0.00;0.00;;;3.80;82.10;;;;;;4192444;28;20044;-59
2022/01/06 08:46:33;;;;;;;0.00;0.00;;;3.60;82.40;;;;;;4162180;28;20056;-60
2022/01/06 08:49:04;;;;;;;0.00;0.00;;;3.70;82.50;;;;;;4175601;28;20044;-59
2022/01/06 08:51:45;;;;;;;0.00;0.00;;;3.70;82.30;;;;;;4175813;28;20045;-60
2022/01/06 08:54:29;;;;;;;0.00;0.00;;;3.70;82.20;;;;;;4175880;28;20048;-59
2022/01/06 08:57:04;;;;;;;0.00;0.00;;;3.70;82.20;;;;;;4176050;28;20057;-58
2022/01/06 08:59:47;;;;;;;0.00;0.00;;;3.80;81.90;;;;;;4189510;28;20053;-59
2022/01/06 09:02:22;;;;;;;0.00;0.00;;;3.80;81.80;;;;;;4189744;28;20461;-59
2022/01/06 09:05:06;;;;;;;0.00;0.00;;;3.80;80.90;;;;;;4150394;28;20053;-59
2022/01/06 09:07:41;;;;;;;0.00;0.00;;;3.80;81.20;;;;;;4161925;28;20050;-59
2022/01/06 09:10:27;;;;;;;0.00;0.00;;;3.70;81.40;;;;;;4161691;28;20057;-59
2022/01/06 09:13:22;;;;;;;0.00;0.00;;;3.60;80.90;;;;;;4161803;28;20140;-59
2022/01/06 09:16:08;;;;;;;0.00;0.00;;;3.60;80.80;;;;;;4163572;28;20045;-59
2022/01/06 09:18:50;;;;;;;0.00;0.00;;;3.60;80.30;;;;;;4164531;28;20088;-58
2022/01/06 09:21:25;;;;;;;0.00;0.00;;;3.60;80.10;;;;;;4164890;28;20084;-59
2022/01/06 09:24:09;;;;;;;0.00;0.00;;;3.70;80.40;;;;;;4164850;28;20050;-59
2022/01/06 09:26:45;;;;;;;0.00;0.00;;;3.70;79.70;;;;;;4164840;28;20089;-59
2022/01/06 09:29:27;;;;;;;0.00;0.00;;;3.70;80.10;;;;;;4164588;28;20050;-58
2022/01/06 09:32:10;;;;;;;0.00;0.00;;;3.70;80.10;;;;;;4152820;28;20076;-59
2022/01/06 09:34:53;;;;;;;0.00;0.00;;;3.80;80.20;;;;;;4164665;28;20053;-59
2022/01/06 09:37:28;;;;;;;0.00;0.00;;;3.80;80.40;;;;;;4164729;28;20418;-59
2022/01/06 09:40:11;;;;;;;0.00;0.00;;;3.80;80.40;;;;;;4164402;28;20116;-59
2022/01/06 09:42:47;;;;;;;0.00;0.00;;;3.90;80.40;;;;;;4164492;28;20045;-58
2022/01/06 09:45:32;;;;;;;0.00;0.00;;;4.10;80.30;;;;;;4164552;28;20080;-59
2022/01/06 09:48:08;;;;;;;0.00;0.00;;;4.10;80.10;;;;;;4164458;28;20084;-58
2022/01/06 09:50:49;;;;;;;0.00;0.00;;;4.30;80.00;;;;;;4164185;28;20104;-59
2022/01/06 09:53:26;;;;;;;0.00;0.00;;;4.50;79.70;;;;;;4164404;28;20045;-60
2022/01/06 09:56:04;;;;;;;0.00;0.00;;;4.70;79.20;;;;;;4164574;28;20050;-59
2022/01/06 09:58:46;;;;;;;0.00;0.00;;;4.70;78.80;;;;;;4152545;28;20180;-59
2022/01/06 10:01:35;;;;;;;0.00;0.00;;;4.40;78.70;;;;;;4164091;28;20079;-59
2022/01/06 10:04:24;;;;;;;0.00;0.00;;;4.20;79.80;;;;;;4164310;28;20049;-59
2022/01/06 10:07:08;;;;;;;0.00;0.00;;;4.10;80.20;;;;;;4164332;28;20064;-58
2022/01/06 10:09:43;;;;;;;0.00;0.00;;;4.00;80.60;;;;;;4164132;28;20092;-59
2022/01/06 10:12:24;;;;;;;0.00;0.00;;;4.10;80.80;;;;;;4163835;28;20087;-58
2022/01/06 10:15:28;;;;;;;0.00;0.00;;;4.00;80.90;;;;;;4191795;28;20045;-59
2022/01/06 10:17:57;;;;;;;0.00;0.00;;;3.90;81.50;;;;;;4163919;28;20050;-59
2022/01/06 10:20:39;;;;;;;0.00;0.00;;;3.90;82.00;;;;;;4163996;28;20155;-57
2022/01/06 10:23:20;;;;;;;0.00;0.00;;;4.10;82.10;;;;;;4163865;28;20053;-57
2022/01/06 10:26:12;;;;;;;0.00;0.00;;;3.90;82.50;;;;;;4191911;28;20575;-58
2022/01/06 10:28:57;;;;;;;0.00;0.00;;;3.80;83.30;;;;;;4163822;28;20077;-59
2022/01/06 10:31:34;;;;;;;0.00;0.00;;;3.70;83.90;;;;;;4149516;28;20092;-59
2022/01/06 10:34:16;;;;;;;0.00;0.00;;;3.80;83.80;;;;;;4164096;28;20053;-58
2022/01/06 10:36:52;;;;;;;0.00;0.00;;;3.80;83.70;;;;;;4163881;28;20048;-59
2022/01/06 10:39:46;;;;;;;0.00;0.00;;;3.80;83.50;;;;;;4167954;28;20124;-59
2022/01/06 10:42:24;;;;;;;0.00;0.00;;;3.90;84.00;;;;;;4180014;28;20099;-59
2022/01/06 10:45:21;;;;;;;0.00;0.00;;;4.00;83.90;;;;;;4164583;28;20046;-60
2022/01/06 10:48:10;;;;;;;0.00;0.00;;;3.90;84.40;;;;;;4180213;28;20095;-59
2022/01/06 10:51:02;;;;;;;0.00;0.00;;;3.70;86.00;;;;;;4179802;28;20052;-59
2022/01/06 10:53:49;;;;;;;0.00;0.00;;;3.70;86.30;;;;;;4177959;28;20466;-60
2022/01/06 10:56:30;;;;;;;0.00;0.00;;;3.60;86.70;;;;;;4177160;28;20102;-59
2022/01/06 10:59:06;;;;;;;0.00;0.00;;;3.70;86.60;;;;;;4176904;28;20044;-58
2022/01/06 11:01:48;;;;;;;0.00;0.00;;;3.80;86.70;;;;;;4150509;28;20519;-58
2022/01/06 11:04:23;;;;;;;0.00;0.00;;;3.80;87.10;;;;;;4150872;28;20057;-57
2022/01/06 11:07:05;;;;;;;0.00;0.00;;;3.70;87.20;;;;;;4151769;28;20049;-59
2022/01/06 11:09:46;;;;;;;0.00;0.00;;;3.60;87.90;;;;;;4151120;28;20111;-59
2022/01/06 11:12:30;;;;;;;0.00;0.00;;;3.50;88.20;;;;;;4176775;28;20041;-59
2022/01/06 11:15:07;;;;;;;0.00;0.00;;;3.60;89.00;;;;;;4176844;28;20100;-59
2022/01/06 11:17:54;;;;;;;0.00;0.00;;;3.70;88.60;;;;;;4176926;28;20053;-58
2022/01/06 11:20:29;;;;;;;0.00;0.00;;;3.70;88.30;;;;;;4176717;28;20080;-60
2022/01/06 11:23:23;;;;;;;0.00;0.00;;;3.70;88.20;;;;;;4162942;28;20050;-59
2022/01/06 11:26:21;;;;;;;0.00;0.00;;;4.00;87.60;;;;;;4163113;28;20550;-58
2022/01/06 11:29:11;;;;;;;0.00;0.00;;;4.20;86.90;;;;;;4176490;28;20103;-57
2022/01/06 11:31:47;;;;;;;0.00;0.00;;;4.00;86.40;;;;;;4175042;28;20049;-59
2022/01/06 11:34:38;;;;;;;0.00;0.00;;;4.00;86.50;;;;;;4176545;28;20048;-59
2022/01/06 11:37:15;;;;;;;0.00;0.00;;;4.20;86.50;;;;;;4162560;28;20049;-59
2022/01/06 11:40:08;;;;;;;0.00;0.00;;;4.40;85.60;;;;;;4162571;28;20108;-59
2022/01/06 11:42:57;;;;;;;0.00;0.00;;;4.60;85.10;;;;;;4162852;28;20053;-59
2022/01/06 11:45:40;;;;;;;0.00;0.00;;;4.70;84.20;;;;;;4162945;28;20435;-59
2022/01/06 11:48:17;;;;;;;0.00;0.00;;;4.70;83.40;;;;;;4176542;28;20049;-58
2022/01/06 11:50:58;;;;;;;0.00;0.00;;;4.80;83.60;;;;;;4176437;28;20076;-58
2022/01/06 11:53:41;;;;;;;0.00;0.00;;;4.80;83.40;;;;;;4166284;28;20045;-58
2022/01/06 11:56:22;;;;;;;0.00;0.00;;;4.70;83.50;;;;;;4162679;28;20045;-59
2022/01/06 11:59:08;;;;;;;0.00;0.00;;;4.80;83.90;;;;;;4176315;28;20130;-59
2022/01/06 12:01:55;;;;;;;0.00;0.00;;;4.80;84.20;;;;;;4173688;28;20077;-59
2022/01/06 12:04:41;;;;;;;0.00;0.00;;;4.80;84.40;;;;;;4178918;28;20048;-59
2022/01/06 12:07:16;;;;;;;0.00;0.00;;;4.50;85.30;;;;;;4166003;28;20071;-56
2022/01/06 12:10:05;;;;;;;0.00;0.00;;;4.40;85.60;;;;;;4169606;28;20618;-58
2022/01/06 12:12:45;;;;;;;0.00;0.00;;;4.40;86.20;;;;;;4162126;28;20064;-57
2022/01/06 12:15:28;;;;;;;0.00;0.00;;;4.50;86.20;;;;;;4162584;28;20049;-58
2022/01/06 12:18:06;;;;;;;0.00;0.00;;;4.60;86.10;;;;;;4175048;28;20060;-58
2022/01/06 12:20:50;;;;;;;0.00;0.00;;;4.60;86.40;;;;;;4162002;28;20041;-57
2022/01/06 12:23:27;;;;;;;0.00;0.00;;;4.60;86.00;;;;;;4176307;28;20064;-58
2022/01/06 12:26:13;;;;;;;0.00;0.00;;;4.50;86.00;;;;;;4176147;28;20075;-58
2022/01/06 12:28:55;;;;;;;0.00;0.00;;;4.40;86.90;;;;;;4161956;28;20064;-57
2022/01/06 12:31:33;;;;;;;0.00;0.00;;;4.50;87.10;;;;;;4174313;28;20135;-56
2022/01/06 12:34:16;;;;;;;0.00;0.00;;;4.30;88.10;;;;;;4176028;28;20045;-55
2022/01/06 12:36:59;;;;;;;0.00;0.00;;;4.30;88.60;;;;;;4176267;28;20057;-58
2022/01/06 12:39:34;;;;;;;0.00;0.00;;;4.20;89.00;;;;;;4161926;28;20049;-56
2022/01/06 12:42:16;;;;;;;0.00;0.00;;;4.10;89.00;;;;;;4175684;28;20087;-55
2022/01/06 12:44:53;;;;;;;0.00;0.00;;;3.90;89.50;;;;;;4175983;28;20049;-56
2022/01/06 12:47:46;;;;;;;0.00;0.00;;;3.90;90.10;;;;;;4175991;28;20095;-54
2022/01/06 12:50:21;;;;;;;0.00;0.00;;;4.10;89.80;;;;;;4176851;28;20087;-59
2022/01/06 12:53:03;;;;;;;0.00;0.00;;;4.20;89.00;;;;;;4179164;28;20041;-59
2022/01/06 12:55:46;;;;;;;0.00;0.00;;;4.20;88.90;;;;;;4179083;28;20107;-60
2022/01/06 12:58:42;;;;;;;0.00;0.00;;;4.40;88.60;;;;;;4179305;28;20068;-59
2022/01/06 13:01:26;;;;;;;0.00;0.00;;;4.10;89.10;;;;;;4167917;28;20445;-60
2022/01/06 13:04:02;;;;;;;0.00;0.00;;;4.10;89.70;;;;;;4181570;28;20103;-60
2022/01/06 13:06:40;;;;;;;0.00;0.00;;;4.20;89.70;;;;;;4195736;28;20056;-60
2022/01/06 13:09:26;;;;;;;0.00;0.00;;;4.30;89.60;;;;;;4181535;28;20049;-59
2022/01/06 13:12:26;;;;;;;0.00;0.00;;;4.40;89.30;;;;;;4155507;28;20132;-61
2022/01/06 13:15:08;;;;;;;0.00;0.00;;;4.40;89.10;;;;;;4167736;28;20041;-57
2022/01/06 13:17:47;;;;;;;0.00;0.00;;;4.30;89.20;;;;;;4176757;28;20061;-57
2022/01/06 13:20:36;;;;;;;0.00;0.00;;;4.30;89.40;;;;;;4192855;28;20055;-60
2022/01/06 13:23:58;;;;;;;0.00;0.00;;;4.20;89.40;;;;;;4181455;28;20065;-59
2022/01/06 13:26:15;;;;;;;0.00;0.00;;;4.10;90.00;;;;;;4181443;28;20114;-59
2022/01/06 13:28:59;;;;;;;0.00;0.00;;;4.10;90.00;;;;;;4154149;28;20050;-60
2022/01/06 13:31:50;;;;;;;0.00;0.00;;;4.10;90.10;;;;;;4163012;28;20410;-60
2022/01/06 13:34:19;;;;;;;0.00;0.00;;;4.00;90.50;;;;;;4164604;28;20053;-59
2022/01/06 13:37:03;;;;;;;0.00;0.00;;;4.10;90.00;;;;;;4178429;28;20086;-60
2022/01/06 13:39:49;;;;;;;0.00;0.00;;;4.00;90.10;;;;;;4178437;28;20059;-60
2022/01/06 13:42:32;;;;;;;0.00;0.00;;;4.00;90.30;;;;;;4178196;28;20115;-60
2022/01/06 13:45:22;;;;;;;0.00;0.00;;;3.80;90.30;;;;;;4185729;28;20041;-60
2022/01/06 13:48:19;;;;;;;0.00;0.00;;;3.60;90.50;;;;;;4181182;28;20053;-60
2022/01/06 13:51:20;;;;;;;0.00;0.00;;;3.50;90.80;;;;;;4194572;28;20098;-59
2022/01/06 13:53:56;;;;;;;0.00;0.00;;;3.60;91.10;;;;;;4194760;28;20106;-60
2022/01/06 13:56:37;;;;;;;0.00;0.00;;;3.80;90.70;;;;;;4155692;28;20326;-59
2022/01/06 13:59:14;;;;;;;0.00;0.00;;;3.90;90.60;;;;;;4180141;28;20089;-60
2022/01/06 14:02:18;;;;;;;0.00;0.00;;;4.10;90.50;;;;;;4180333;28;20589;-60
2022/01/06 14:05:00;;;;;;;0.00;0.00;;;4.20;90.60;;;;;;4180691;28;20081;-60
2022/01/06 14:07:44;;;;;;;0.00;0.00;;;4.10;90.50;;;;;;4182600;28;20049;-60
2022/01/06 14:10:20;;;;;;;0.00;0.00;;;3.90;90.70;;;;;;4180577;28;20065;-60
2022/01/06 14:13:03;;;;;;;0.00;0.00;;;4.00;90.70;;;;;;4164208;28;20046;-61
2022/01/06 14:15:39;;;;;;;0.00;0.00;;;4.10;90.70;;;;;;4177808;28;20044;-59
2022/01/06 14:18:02;;;;;;;0.00;0.00;;;4.20;90.60;;;;;;4163576;28;20061;-58